Deering, AK

04:27 AKDT le 29 Mars 2015 (GMT -0800)
Deering (New) | | Change Station
CLOSE
Current Station
Aéroport
Location: Deering,
Altitude: 16 ft
Stations météo à proximité

Alt. 16 ft 66.07 °N, 162.77 °W | Updated 34 minutes ago

Clear
Ciel dégagé
-5 ° F
Paraît -28 ° F
N
18
Vent Variable Vent de OSO

Aujourd'hui
Haut(e) -- | Bas -- ° F
--% Risque de précip.
Hier
Haut(e) -- | Bas -- ° F
Precip. -- pouce
8:16 AM 9:37 PM
Lune gibbeuse croissante, 71% visible
Pression 29.67 pouce
Visibilité 9.0 Miles terrestres
Nuages Ciel dégagé
Refroidissement éolien -28 ° F
Point de rosée -10 ° F
Humidité 80%
Précipitations 0.00 pouce
Profondeur de la couche neigeuse Non disponible.
UV 0 sur 12
Pollen Non disponible.
Qualité de l'air Non disponible.
Flu Activity Non disponible.
METAR PADE 291153Z AUTO 25016KT 9SM CLR M21/M23 A2967 RMK AO2 SLP046 T12061233 11178 21206 55003 TSNO

More Conditions Fewer Conditions

Pression 29.67 pouce
Visibilité 9.0 Miles terrestres
Nuages Ciel dégagé
Refroidissement éolien -28 ° F
Point de rosée -10 ° F
Humidité 80%
Précipitations 0.00 pouce
Profondeur de la couche neigeuse Non disponible.
UV 0 sur 12
Pollen Non disponible.
Qualité de l'air Non disponible.
Flu Activity Non disponible.
METAR PADE 291153Z AUTO 25016KT 9SM CLR M21/M23 A2967 RMK AO2 SLP046 T12061233 11178 21206 55003 TSNO

More Conditions Fewer Conditions

10-Day Weather Forecast

Almanac

Astronomie

Mar. 29, 2015 Lever Coucher
Temps réel
Crépuscule civil
Crépuscule nautique
Crépuscule astronomique
Lune
Durée de lumière visible
Longueur du jour
Tomorrow will be .
, % of the Moon is Illuminated

Extrêmes aujourd'hui

State Highs State Lows

Community

WunderPhotos

Upload Photos

1,809,229 Photos téléchargées !

WunderBlogs® & News

Nearby

Qualité de l'air

  Qualité de l'air Indice de la qualité de l'air Polluant
Not available.

Épaisseur de neige

Station Depth Altitude

Activité sismique

Ville Distance Mag. Time & Date
Minimum magnitude displayed is 2.5.

Températures des eaux côtières

Lieu Température

Stations

Stations météo à proximité

Emplacement de la station Température Refroidissement éolien Point de rosée Humidité Vent Precip. Alt. Mise à jour Type